Time;durP1;ratioP1;P1;durP2;ratioP2;P2;SDS_P1;SDS_P2;PMS_P1;PMS_P2;Temp;Humidity;BMP_temperature;BMP_pressure;BME280_temperature;BME280_humidity;BME280_pressure;Samples;Min_cycle;Max_cycle;Signal;HPM_P1;HPM_P2
2023/09/07 00:00:12;;;;;;;5.50;3.70;;;;;;;15.91;100.00;101118.16;690242;28;1030;-61
2023/09/07 00:00:33;;;;;;;6.70;4.10;;;;;;;15.89;100.00;101117.28;690962;28;1207;-62
2023/09/07 00:00:53;;;;;;;6.63;4.30;;;;;;;15.91;100.00;101109.34;689600;28;1819;-61
2023/09/07 00:01:14;;;;;;;7.93;4.40;;;;;;;15.96;100.00;101116.31;690042;28;4343;-61
2023/09/07 00:01:34;;;;;;;6.43;4.27;;;;;;;15.94;100.00;101120.72;690956;28;1255;-62
2023/09/07 00:01:55;;;;;;;6.50;4.30;;;;;;;15.94;100.00;101117.22;684847;28;1852;-61
2023/09/07 00:02:15;;;;;;;6.27;4.40;;;;;;;15.94;100.00;101112.81;687147;28;1232;-62
2023/09/07 00:02:36;;;;;;;6.40;3.97;;;;;;;15.93;100.00;101113.69;685519;28;1287;-62
2023/09/07 00:02:56;;;;;;;5.47;3.63;;;;;;;15.93;100.00;101113.69;683167;28;1750;-62
2023/09/07 00:03:16;;;;;;;5.60;3.95;;;;;;;15.92;100.00;101113.72;685267;28;1157;-61
2023/09/07 00:03:40;;;;;;;5.23;4.03;;;;;;;15.90;100.00;101116.41;685026;28;1260;-62
2023/09/07 00:04:03;;;;;;;5.22;3.75;;;;;;;15.92;100.00;101114.63;686874;28;1161;-62
2023/09/07 00:04:23;;;;;;;5.80;3.92;;;;;;;15.91;100.00;101115.50;688139;28;4445;-62
2023/09/07 00:04:43;;;;;;;5.97;3.90;;;;;;;15.93;100.00;101115.47;690161;28;1597;-62
2023/09/07 00:05:06;;;;;;;7.23;4.20;;;;;;;15.93;100.00;101111.06;690927;28;1266;-62
2023/09/07 00:05:26;;;;;;;7.00;4.28;;;;;;;15.93;100.00;101113.69;689345;28;1446;-61
2023/09/07 00:05:47;;;;;;;5.97;4.10;;;;;;;15.95;100.00;101114.56;689815;28;2412;-62
2023/09/07 00:06:08;;;;;;;6.25;4.10;;;;;;;15.97;100.00;101117.16;690290;28;1326;-61
2023/09/07 00:06:28;;;;;;;7.40;4.20;;;;;;;16.06;100.00;101110.81;688593;28;2213;-62
2023/09/07 00:06:51;;;;;;;7.67;4.10;;;;;;;16.01;100.00;101116.19;687137;28;1895;-61
2023/09/07 00:07:12;;;;;;;6.10;3.80;;;;;;;16.00;100.00;101117.97;688535;28;4289;-61
2023/09/07 00:07:33;;;;;;;6.30;3.85;;;;;;;16.01;100.00;101116.19;687697;28;1224;-62
2023/09/07 00:07:53;;;;;;;6.25;4.05;;;;;;;15.96;100.00;101113.66;686996;28;1798;-61
2023/09/07 00:08:13;;;;;;;5.70;4.10;;;;;;;15.98;100.00;101111.84;687252;28;1332;-62
2023/09/07 00:08:34;;;;;;;6.00;3.92;;;;;;;15.96;100.00;101116.31;687630;28;1156;-61
2023/09/07 00:08:55;;;;;;;6.00;4.17;;;;;;;15.93;100.00;101116.34;689279;28;1525;-62
2023/09/07 00:09:18;;;;;;;7.05;4.10;;;;;;;15.89;100.00;101114.66;690041;28;1223;-62
2023/09/07 00:09:38;;;;;;;7.43;4.00;;;;;;;15.87;100.00;101107.69;685699;28;1217;-61
2023/09/07 00:09:59;;;;;;;6.18;3.80;;;;;;;15.88;100.00;101109.41;685388;28;1489;-62
2023/09/07 00:10:20;;;;;;;5.47;3.80;;;;;;;15.87;100.00;101112.94;685107;28;4493;-62
2023/09/07 00:10:40;;;;;;;5.73;4.00;;;;;;;15.85;100.00;101106.84;684471;28;1742;-62
2023/09/07 00:11:05;;;;;;;6.07;3.93;;;;;;;15.87;100.00;101110.31;685837;28;1431;-62
2023/09/07 00:11:25;;;;;;;6.80;3.90;;;;;;;15.84;100.00;101113.91;684767;28;1157;-61
2023/09/07 00:11:46;;;;;;;7.20;3.90;;;;;;;15.84;100.00;101113.91;683072;28;2193;-62
2023/09/07 00:12:06;;;;;;;6.50;3.90;;;;;;;15.85;100.00;101112.97;685468;28;1308;-61
2023/09/07 00:12:27;;;;;;;5.57;3.70;;;;;;;15.81;100.00;101106.03;684548;28;1351;-60
2023/09/07 00:12:47;;;;;;;6.35;4.20;;;;;;;15.89;100.00;101114.66;686084;28;1340;-62
2023/09/07 00:13:08;;;;;;;5.50;3.93;;;;;;;15.89;100.00;101111.16;688381;28;4440;-62
2023/09/07 00:13:29;;;;;;;5.35;3.85;;;;;;;15.88;100.00;101112.94;692726;28;1224;-62
2023/09/07 00:13:50;;;;;;;5.53;3.80;;;;;;;15.87;100.00;101111.19;690227;28;1785;-62
2023/09/07 00:14:11;;;;;;;6.80;4.10;;;;;;;15.86;100.00;101117.38;690071;28;1358;-62
2023/09/07 00:14:31;;;;;;;6.65;4.00;;;;;;;15.83;100.00;101101.63;687482;28;1275;-62
2023/09/07 00:14:54;;;;;;;6.43;3.90;;;;;;;15.80;100.00;101105.16;686522;28;1945;-59
2023/09/07 00:15:14;;;;;;;6.38;3.90;;;;;;;15.83;100.00;101106.88;685451;28;1221;-62
2023/09/07 00:15:38;;;;;;;6.78;4.05;;;;;;;15.83;100.00;101109.53;685509;28;1252;-61
2023/09/07 00:16:03;;;;;;;6.13;4.05;;;;;;;15.79;100.00;101105.16;684569;28;2110;-61
2023/09/07 00:16:23;;;;;;;6.40;4.00;;;;;;;15.78;100.00;101111.34;686361;28;4538;-62
2023/09/07 00:16:44;;;;;;;6.00;4.00;;;;;;;15.78;100.00;101108.69;683253;28;1446;-61
2023/09/07 00:17:04;;;;;;;5.47;3.80;;;;;;;15.79;100.00;101108.69;685463;28;1188;-62
2023/09/07 00:17:25;;;;;;;5.40;3.90;;;;;;;15.80;100.00;101109.59;687032;28;1303;-61
2023/09/07 00:17:45;;;;;;;5.65;4.07;;;;;;;15.82;100.00;101113.03;685702;28;2048;-61
2023/09/07 00:18:06;;;;;;;5.67;4.10;;;;;;;15.81;100.00;101108.66;685822;28;1394;-61
2023/09/07 00:18:27;;;;;;;5.97;3.97;;;;;;;15.80;100.00;101109.59;685397;28;1580;-62
2023/09/07 00:18:48;;;;;;;8.25;3.97;;;;;;;15.79;100.00;101108.69;688694;28;1886;-62
2023/09/07 00:19:08;;;;;;;5.60;3.85;;;;;;;15.80;100.00;101109.59;685642;28;4563;-61
2023/09/07 00:19:31;;;;;;;5.40;4.00;;;;;;;15.77;100.00;101110.47;686863;28;1287;-61
2023/09/07 00:19:52;;;;;;;6.35;3.95;;;;;;;15.77;100.00;101105.22;683790;28;3769;-61
2023/09/07 00:20:15;;;;;;;6.20;4.20;;;;;;;15.78;100.00;101111.34;686991;28;1335;-62
2023/09/07 00:20:36;;;;;;;5.78;4.20;;;;;;;15.79;100.00;101102.53;686104;28;1327;-62
2023/09/07 00:20:56;;;;;;;5.97;4.13;;;;;;;15.79;100.00;101107.81;684079;28;1767;-61
2023/09/07 00:21:16;;;;;;;6.47;4.27;;;;;;;15.79;100.00;101105.16;685206;28;1288;-62
2023/09/07 00:21:37;;;;;;;7.15;4.00;;;;;;;15.78;100.00;101111.34;685635;28;1226;-62
2023/09/07 00:21:58;;;;;;;6.23;3.77;;;;;;;15.76;100.00;101106.09;686755;28;1679;-62
2023/09/07 00:22:18;;;;;;;5.82;4.00;;;;;;;15.75;100.00;101111.41;685668;28;4430;-62
2023/09/07 00:22:39;;;;;;;6.00;4.00;;;;;;;15.80;100.00;101109.59;687221;28;1271;-61
2023/09/07 00:23:00;;;;;;;6.07;3.85;;;;;;;15.87;100.00;101105.03;683954;28;1816;-62
2023/09/07 00:23:21;;;;;;;6.13;3.70;;;;;;;15.84;100.00;101106.00;686179;28;1168;-62
2023/09/07 00:23:42;;;;;;;5.55;3.65;;;;;;;15.83;100.00;101104.25;685028;28;2254;-62
2023/09/07 00:24:05;;;;;;;5.53;3.90;;;;;;;15.82;100.00;101108.66;687290;28;1299;-62
2023/09/07 00:24:25;;;;;;;6.63;4.30;;;;;;;15.82;100.00;101113.03;689995;28;1299;-61
2023/09/07 00:24:46;;;;;;;6.35;4.20;;;;;;;15.77;100.00;101107.84;688980;28;1586;-62
2023/09/07 00:25:06;;;;;;;5.57;4.00;;;;;;;15.82;100.00;101107.78;689376;28;5003;-61
2023/09/07 00:25:27;;;;;;;5.45;3.75;;;;;;;15.92;100.00;101104.06;692817;28;1449;-61
2023/09/07 00:25:48;;;;;;;6.65;4.20;;;;;;;15.92;100.00;101105.81;691778;28;1921;-62
2023/09/07 00:26:08;;;;;;;6.60;4.25;;;;;;;15.89;100.00;101104.13;688561;28;1320;-61
2023/09/07 00:26:29;;;;;;;6.30;4.05;;;;;;;15.89;100.00;101109.38;686643;28;1496;-62
2023/09/07 00:26:49;;;;;;;5.60;4.10;;;;;;;15.87;100.00;101111.19;685036;28;1480;-62
2023/09/07 00:27:11;;;;;;;5.67;4.13;;;;;;;15.84;100.00;101108.63;686653;28;1342;-62
2023/09/07 00:27:35;;;;;;;5.97;3.92;;;;;;;15.79;100.00;101106.06;683801;28;1701;-62
2023/09/07 00:27:55;;;;;;;5.70;3.90;;;;;;;15.74;100.00;101102.63;684013;28;1097;-61
2023/09/07 00:28:16;;;;;;;5.82;3.88;;;;;;;15.73;100.00;101107.91;684015;28;4386;-61
2023/09/07 00:28:36;;;;;;;7.00;4.23;;;;;;;15.73;100.00;101103.53;684143;28;1261;-61
2023/09/07 00:28:57;;;;;;;6.10;3.90;;;;;;;15.73;100.00;101106.16;682753;28;1715;-62
2023/09/07 00:29:17;;;;;;;5.80;3.90;;;;;;;15.73;100.00;101105.28;685429;28;1382;-62
2023/09/07 00:29:38;;;;;;;6.90;4.27;;;;;;;15.72;100.00;101100.94;681810;28;1256;-62
2023/09/07 00:29:59;;;;;;;6.70;4.30;;;;;;;15.73;100.00;101105.28;681321;28;1717;-62
2023/09/07 00:30:20;;;;;;;6.43;4.37;;;;;;;15.75;100.00;101103.50;681498;28;1423;-62
2023/09/07 00:30:40;;;;;;;6.28;4.47;;;;;;;15.86;100.00;101106.81;684186;28;1468;-62
2023/09/07 00:31:00;;;;;;;6.57;4.47;;;;;;;15.94;100.00;101104.91;680595;29;2696;-61
2023/09/07 00:31:21;;;;;;;6.53;4.40;;;;;;;15.99;100.00;101104.78;682030;28;4349;-62
2023/09/07 00:31:41;;;;;;;7.67;4.07;;;;;;;15.93;100.00;101104.94;686791;28;1383;-62
2023/09/07 00:32:02;;;;;;;5.70;4.03;;;;;;;15.86;100.00;101101.53;686776;28;1279;-61
2023/09/07 00:32:22;;;;;;;5.80;4.27;;;;;;;15.81;100.00;101103.41;686770;28;1303;-61
2023/09/07 00:32:42;;;;;;;5.97;4.13;;;;;;;15.78;100.00;101106.94;685898;28;2340;-61
2023/09/07 00:33:03;;;;;;;5.95;4.10;;;;;;;15.78;100.00;101106.94;687168;28;1371;-62
2023/09/07 00:33:24;;;;;;;5.60;4.00;;;;;;;15.75;100.00;101106.13;683351;28;1196;-61
2023/09/07 00:33:44;;;;;;;6.07;3.90;;;;;;;15.74;100.00;101107.03;683002;28;1825;-62
2023/09/07 00:34:04;;;;;;;6.22;4.10;;;;;;;15.72;100.00;101111.47;684329;28;1425;-62
2023/09/07 00:34:25;;;;;;;6.23;4.10;;;;;;;15.71;100.00;101110.56;684014;28;4607;-62
2023/09/07 00:34:46;;;;;;;6.17;3.93;;;;;;;15.72;100.00;101112.31;684942;28;1927;-63
2023/09/07 00:35:07;;;;;;;5.55;4.00;;;;;;;15.68;100.00;101115.06;687372;28;1389;-61
2023/09/07 00:35:27;;;;;;;6.70;4.53;;;;;;;15.66;100.00;101113.31;685710;28;1530;-61
2023/09/07 00:35:47;;;;;;;6.43;4.65;;;;;;;15.66;100.00;101113.31;681331;28;2007;-62
2023/09/07 00:36:08;;;;;;;5.73;4.30;;;;;;;15.65;100.00;101111.56;684466;28;1447;-62
2023/09/07 00:36:28;;;;;;;5.77;4.20;;;;;;;15.65;100.00;101103.66;683550;28;1942;-62
2023/09/07 00:36:48;;;;;;;6.07;4.25;;;;;;;15.64;100.00;101112.47;680813;28;1811;-62
2023/09/07 00:37:09;;;;;;;6.97;4.40;;;;;;;15.61;100.00;101107.25;684317;28;4559;-62
2023/09/07 00:37:29;;;;;;;7.10;4.50;;;;;;;15.63;100.00;101109.84;683997;28;1382;-61
2023/09/07 00:37:50;;;;;;;7.40;4.50;;;;;;;15.62;100.00;101105.50;686078;28;1824;-62
2023/09/07 00:38:11;;;;;;;8.40;4.17;;;;;;;15.63;100.00;101109.84;687318;28;1197;-61
2023/09/07 00:38:31;;;;;;;6.78;4.00;;;;;;;15.69;100.00;101114.13;685488;28;1099;-61
2023/09/07 00:38:52;;;;;;;6.47;4.17;;;;;;;15.68;100.00;101115.91;688552;28;1745;-61
2023/09/07 00:39:14;;;;;;;6.40;4.25;;;;;;;15.68;100.00;101115.91;690154;28;1291;-61
2023/09/07 00:39:35;;;;;;;6.53;4.20;;;;;;;15.66;100.00;101109.81;685082;28;1326;-61
2023/09/07 00:39:55;;;;;;;6.03;4.00;;;;;;;15.63;100.00;101110.75;686133;28;2438;-62
2023/09/07 00:40:16;;;;;;;6.22;4.28;;;;;;;15.63;100.00;101112.50;682511;28;4401;-62
2023/09/07 00:40:36;;;;;;;6.30;4.20;;;;;;;15.63;100.00;101110.75;681712;29;1267;-61
2023/09/07 00:40:57;;;;;;;5.97;4.10;;;;;;;15.63;100.00;101107.22;678120;29;1827;-61
2023/09/07 00:41:17;;;;;;;6.30;4.20;;;;;;;15.61;100.00;101112.53;679163;29;1328;-61
2023/09/07 00:41:38;;;;;;;6.27;4.10;;;;;;;15.63;100.00;101113.38;680462;29;1301;-61
2023/09/07 00:41:58;;;;;;;7.45;4.32;;;;;;;15.65;100.00;101114.19;678272;29;2307;-61
2023/09/07 00:42:18;;;;;;;5.87;4.00;;;;;;;15.70;100.00;101110.59;681584;29;5680;-62
2023/09/07 00:42:39;;;;;;;5.32;4.10;;;;;;;15.66;100.00;101112.47;679508;29;1178;-61
2023/09/07 00:43:00;;;;;;;6.03;4.07;;;;;;;15.67;100.00;101111.53;680203;28;1665;-61
2023/09/07 00:43:20;;;;;;;6.20;4.25;;;;;;;15.62;100.00;101098.47;680674;28;4355;-62
2023/09/07 00:43:41;;;;;;;6.32;4.00;;;;;;;15.66;100.00;101108.03;683693;28;1264;-60
2023/09/07 00:44:02;;;;;;;6.60;4.30;;;;;;;15.73;100.00;101106.16;682691;28;1232;-61
2023/09/07 00:44:23;;;;;;;5.47;4.20;;;;;;;15.71;100.00;101113.22;681883;28;1269;-62
2023/09/07 00:44:46;;;;;;;6.17;4.10;;;;;;;15.68;100.00;101108.00;683821;28;2299;-61
2023/09/07 00:45:07;;;;;;;5.57;4.00;;;;;;;15.68;100.00;101104.50;684075;28;1939;-61
2023/09/07 00:45:27;;;;;;;6.20;4.40;;;;;;;15.63;100.00;101102.84;684647;28;1466;-61
2023/09/07 00:45:48;;;;;;;6.00;4.10;;;;;;;15.61;100.00;101106.41;681897;28;2189;-61
2023/09/07 00:46:09;;;;;;;6.00;3.95;;;;;;;15.58;100.00;101109.09;685088;28;4389;-61
2023/09/07 00:46:29;;;;;;;5.53;4.00;;;;;;;15.53;100.00;101098.63;689150;28;1200;-61
2023/09/07 00:46:50;;;;;;;5.73;3.93;;;;;;;15.53;100.00;101105.66;686847;28;2347;-62
2023/09/07 00:47:13;;;;;;;5.97;4.10;;;;;;;15.55;100.00;101102.09;685716;28;1327;-61
2023/09/07 00:47:35;;;;;;;7.80;4.40;;;;;;;15.56;100.00;101106.50;684432;28;1393;-61
2023/09/07 00:47:56;;;;;;;7.90;4.13;;;;;;;15.56;100.00;101106.50;683025;28;1907;-61
2023/09/07 00:48:21;;;;;;;6.75;4.18;;;;;;;15.56;100.00;101110.88;682938;28;1275;-62
2023/09/07 00:48:42;;;;;;;8.60;4.40;;;;;;;15.61;100.00;101109.88;683727;28;1272;-62
2023/09/07 00:49:04;;;;;;;5.97;4.30;;;;;;;15.60;100.00;101099.38;680544;29;1351;-61
2023/09/07 00:49:25;;;;;;;5.90;4.00;;;;;;;15.58;100.00;101103.81;678856;29;4292;-62
2023/09/07 00:49:46;;;;;;;5.43;4.15;;;;;;;15.57;100.00;101105.56;678490;29;1497;-61
2023/09/07 00:50:07;;;;;;;5.57;4.18;;;;;;;15.57;100.00;101102.06;685000;28;1308;-61
2023/09/07 00:50:29;;;;;;;6.00;4.00;;;;;;;15.57;100.00;101102.06;686728;28;1242;-62
2023/09/07 00:50:50;;;;;;;5.43;3.80;;;;;;;15.56;100.00;101111.75;686347;28;1694;-61
2023/09/07 00:51:10;;;;;;;6.25;4.07;;;;;;;15.52;100.00;101107.44;683845;28;1287;-62
2023/09/07 00:51:32;;;;;;;6.00;3.90;;;;;;;15.49;100.00;101104.84;679550;29;1340;-62
2023/09/07 00:51:52;;;;;;;6.07;4.13;;;;;;;15.45;100.00;101109.31;678860;29;2655;-62
2023/09/07 00:52:13;;;;;;;5.63;4.00;;;;;;;15.45;100.00;101108.41;682663;28;4301;-61
2023/09/07 00:52:39;;;;;;;5.60;4.10;;;;;;;15.45;100.00;101109.31;684155;28;1277;-62
2023/09/07 00:53:00;;;;;;;5.90;4.00;;;;;;;15.45;100.00;101100.53;683477;28;1745;-61
2023/09/07 00:53:21;;;;;;;5.77;4.00;;;;;;;15.45;100.00;101108.41;684886;28;1304;-62
2023/09/07 00:53:41;;;;;;;5.50;4.07;;;;;;;15.43;100.00;101107.59;685340;28;1295;-62
2023/09/07 00:54:02;;;;;;;5.80;3.80;;;;;;;15.42;100.00;101104.06;685343;28;1163;-61
2023/09/07 00:54:26;;;;;;;6.05;3.95;;;;;;;15.43;100.00;101108.44;689375;28;1460;-62
2023/09/07 00:54:47;;;;;;;5.65;3.97;;;;;;;15.44;100.00;101109.34;688297;28;1815;-62
2023/09/07 00:55:08;;;;;;;6.27;4.60;;;;;;;15.43;100.00;101107.59;686638;28;4452;-61
2023/09/07 00:55:32;;;;;;;6.60;4.25;;;;;;;15.44;100.00;101106.72;684077;28;1316;-62
2023/09/07 00:55:54;;;;;;;5.75;4.00;;;;;;;15.43;100.00;101110.22;682823;28;1836;-61
2023/09/07 00:56:16;;;;;;;5.70;3.85;;;;;;;15.50;100.00;101109.22;680299;29;1304;-61
2023/09/07 00:56:39;;;;;;;7.32;4.15;;;;;;;15.53;100.00;101105.66;679459;29;1205;-62
2023/09/07 00:57:00;;;;;;;6.00;4.10;;;;;;;15.50;100.00;101106.59;681544;28;2379;-61
2023/09/07 00:57:20;;;;;;;5.97;4.22;;;;;;;15.48;100.00;101103.97;686289;28;1232;-61
2023/09/07 00:57:42;;;;;;;5.63;4.20;;;;;;;15.49;100.00;101110.09;683040;28;1257;-61
2023/09/07 00:58:04;;;;;;;6.13;4.18;;;;;;;15.45;100.00;101108.41;679977;28;1770;-62
2023/09/07 00:58:25;;;;;;;6.03;4.20;;;;;;;15.43;100.00;101110.22;682097;28;4363;-61
2023/09/07 00:58:46;;;;;;;5.57;3.92;;;;;;;15.42;100.00;101103.22;678852;29;1525;-62
2023/09/07 00:59:08;;;;;;;5.15;3.97;;;;;;;15.40;100.00;101105.88;683153;28;1517;-61
2023/09/07 00:59:28;;;;;;;5.30;3.95;;;;;;;15.39;100.00;101109.41;682918;28;1358;-61
2023/09/07 00:59:49;;;;;;;5.80;4.37;;;;;;;15.41;100.00;101105.00;679933;29;1773;-62
2023/09/07 01:00:10;;;;;;;5.70;4.32;;;;;;;15.40;100.00;101108.53;682171;28;1358;-62
2023/09/07 01:00:33;;;;;;;6.22;4.20;;;;;;;15.40;100.00;101105.88;684295;28;1292;-61
2023/09/07 01:00:54;;;;;;;5.95;4.05;;;;;;;15.39;100.00;101103.28;684289;28;1736;-62
2023/09/07 01:01:15;;;;;;;6.30;4.10;;;;;;;15.36;100.00;101111.25;685068;28;4344;-61
2023/09/07 01:01:35;;;;;;;6.47;4.20;;;;;;;15.35;100.00;101104.22;686372;28;1413;-61
2023/09/07 01:01:56;;;;;;;6.07;4.10;;;;;;;15.33;100.00;101101.63;681845;28;1683;-61
2023/09/07 01:02:17;;;;;;;5.70;4.03;;;;;;;15.28;100.00;101099.06;683713;28;1509;-62
2023/09/07 01:02:37;;;;;;;5.27;4.10;;;;;;;15.26;100.00;101103.50;683268;28;1253;-62
2023/09/07 01:02:58;;;;;;;5.75;4.25;;;;;;;15.37;100.00;101103.31;683335;28;2167;-61
2023/09/07 01:03:18;;;;;;;6.30;4.17;;;;;;;15.40;100.00;101097.97;686707;28;1457;-61
2023/09/07 01:03:39;;;;;;;6.20;4.50;;;;;;;15.42;100.00;101103.22;686880;28;1232;-62
2023/09/07 01:03:59;;;;;;;5.57;4.17;;;;;;;15.42;100.00;101103.22;677891;29;1641;-62
2023/09/07 01:04:22;;;;;;;6.15;4.05;;;;;;;15.39;100.00;101098.88;682136;28;4376;-61
2023/09/07 01:04:42;;;;;;;6.83;4.23;;;;;;;15.36;100.00;101104.19;684341;28;1232;-61
2023/09/07 01:05:06;;;;;;;5.65;4.25;;;;;;;15.39;100.00;101100.66;685523;28;2185;-62
2023/09/07 01:05:34;;;;;;;5.68;3.75;;;;;;;15.38;100.00;101097.16;685557;28;1379;-61
2023/09/07 01:06:27;;;;;;;5.13;3.97;;;;;;;15.36;100.00;101104.19;683922;28;1778;-61
2023/09/07 01:06:55;;;;;;;5.72;4.00;;;;;;;15.33;100.00;101099.84;674800;29;1829;-62
2023/09/07 01:07:32;;;;;;;6.05;4.20;;;;;;;15.31;100.00;101101.66;676668;29;4750;-62
2023/09/07 01:08:01;;;;;;;6.57;4.18;;;;;;;15.32;100.00;101098.09;678949;28;1832;-62
2023/09/07 01:08:31;;;;;;;5.97;4.18;;;;;;;15.25;100.00;101101.75;683618;28;1394;-62
2023/09/07 01:08:57;;;;;;;7.57;4.05;;;;;;;15.24;100.00;101100.00;682645;28;2547;-62
2023/09/07 01:09:23;;;;;;;5.32;3.88;;;;;;;15.24;100.00;101104.41;683393;28;1491;-61
2023/09/07 01:09:46;;;;;;;5.55;3.92;;;;;;;15.23;100.00;101094.75;686574;28;1469;-62
2023/09/07 01:10:08;;;;;;;6.15;4.10;;;;;;;15.22;100.00;101103.59;685732;28;4630;-61
2023/09/07 01:10:28;;;;;;;6.07;4.10;;;;;;;15.20;100.00;101098.31;679649;29;1280;-61
2023/09/07 01:10:49;;;;;;;6.10;4.27;;;;;;;15.17;100.00;101095.75;679235;29;2475;-62
2023/09/07 01:11:16;;;;;;;5.65;4.15;;;;;;;15.17;100.00;101092.25;681029;29;1391;-62
2023/09/07 01:11:37;;;;;;;5.97;4.28;;;;;;;15.18;100.00;101094.84;680687;29;1339;-62
2023/09/07 01:11:58;;;;;;;8.00;4.30;;;;;;;15.20;100.00;101095.69;676421;29;1711;-66
2023/09/07 01:12:18;;;;;;;7.27;4.23;;;;;;;15.21;100.00;101092.16;679442;28;1253;-61
2023/09/07 01:12:41;;;;;;;5.83;4.20;;;;;;;15.19;100.00;101095.72;681010;29;1470;-61
2023/09/07 01:13:02;;;;;;;6.47;4.28;;;;;;;15.18;100.00;101088.72;681117;28;1718;-61
2023/09/07 01:13:22;;;;;;;5.60;4.07;;;;;;;15.17;100.00;101094.88;682850;28;4529;-62
2023/09/07 01:13:43;;;;;;;6.50;4.10;;;;;;;15.19;100.00;101096.59;687251;28;1430;-62
2023/09/07 01:14:04;;;;;;;6.33;3.83;;;;;;;15.21;100.00;101096.56;687047;28;2040;-62
2023/09/07 01:14:24;;;;;;;6.35;4.28;;;;;;;15.21;100.00;101092.16;689194;28;1474;-62
2023/09/07 01:14:45;;;;;;;5.73;4.20;;;;;;;15.20;100.00;101086.91;689102;28;1551;-62
2023/09/07 01:15:06;;;;;;;6.32;4.22;;;;;;;15.19;100.00;101091.34;689448;28;1405;-62
2023/09/07 01:15:27;;;;;;;6.25;4.28;;;;;;;15.17;100.00;101086.97;689657;28;1481;-61
2023/09/07 01:15:48;;;;;;;6.33;4.20;;;;;;;15.17;100.00;101086.97;687043;28;1779;-62
2023/09/07 01:16:13;;;;;;;5.78;4.10;;;;;;;15.14;100.00;101090.53;689030;28;4554;-61
2023/09/07 01:16:35;;;;;;;5.30;4.05;;;;;;;15.13;100.00;101094.94;689571;28;1910;-62
2023/09/07 01:16:56;;;;;;;5.60;4.22;;;;;;;15.14;100.00;101093.16;686129;28;1765;-62
2023/09/07 01:17:16;;;;;;;6.23;4.20;;;;;;;15.17;100.00;101087.84;687158;28;1247;-61
2023/09/07 01:17:37;;;;;;;5.75;4.20;;;;;;;15.20;100.00;101092.19;684310;28;1638;-61
2023/09/07 01:17:58;;;;;;;5.50;4.10;;;;;;;15.16;100.00;101086.13;681816;28;2220;-61
2023/09/07 01:18:19;;;;;;;5.88;4.03;;;;;;;15.28;100.00;101085.88;682240;28;1189;-61
2023/09/07 01:18:40;;;;;;;5.63;3.97;;;;;;;15.33;100.00;101089.31;679836;29;1596;-62
2023/09/07 01:19:04;;;;;;;5.55;4.20;;;;;;;15.31;100.00;101085.84;680166;28;1851;-61
2023/09/07 01:19:24;;;;;;;5.93;4.30;;;;;;;15.30;100.00;101084.09;681898;28;5225;-61
2023/09/07 01:19:49;;;;;;;6.87;3.90;;;;;;;15.30;100.00;101089.38;686015;28;1593;-62
2023/09/07 01:20:13;;;;;;;5.55;4.00;;;;;;;15.24;100.00;101086.81;687609;28;1061;-62
2023/09/07 01:20:35;;;;;;;6.53;4.30;;;;;;;15.23;100.00;101095.66;687444;28;899;-61
2023/09/07 01:20:58;;;;;;;6.60;4.18;;;;;;;15.23;100.00;101093.00;690128;28;1006;-62
2023/09/07 01:21:19;;;;;;;5.60;4.10;;;;;;;15.22;100.00;101090.41;692444;28;855;-62
2023/09/07 01:21:39;;;;;;;6.40;4.47;;;;;;;15.18;100.00;101081.69;690819;28;1356;-62
2023/09/07 01:22:00;;;;;;;6.23;4.23;;;;;;;15.16;100.00;101086.13;691134;28;2206;-62
2023/09/07 01:22:24;;;;;;;6.05;4.00;;;;;;;15.17;100.00;101079.94;689220;28;4605;-61
2023/09/07 01:22:45;;;;;;;7.68;4.20;;;;;;;15.20;100.00;101092.19;689051;28;1718;-62
2023/09/07 01:23:07;;;;;;;6.55;4.05;;;;;;;15.20;100.00;101085.16;688757;28;1461;-62
2023/09/07 01:23:30;;;;;;;5.72;3.90;;;;;;;15.19;100.00;101090.44;686494;28;1578;-61
2023/09/07 01:23:52;;;;;;;6.43;3.90;;;;;;;15.14;100.00;101088.75;681902;28;2068;-61
2023/09/07 01:24:15;;;;;;;7.20;3.97;;;;;;;15.15;100.00;101094.91;681409;29;806;-62
2023/09/07 01:24:38;;;;;;;5.55;4.10;;;;;;;15.19;100.00;101085.16;682193;28;878;-62
2023/09/07 01:24:59;;;;;;;5.57;4.20;;;;;;;15.20;100.00;101087.78;682962;28;1731;-61
2023/09/07 01:25:19;;;;;;;5.72;4.25;;;;;;;15.20;100.00;101087.78;679207;29;4389;-61
2023/09/07 01:25:40;;;;;;;6.20;4.30;;;;;;;15.21;100.00;101088.66;683048;28;743;-61
2023/09/07 01:26:02;;;;;;;6.47;4.10;;;;;;;15.19;100.00;101090.44;685733;28;1730;-61
2023/09/07 01:26:23;;;;;;;6.28;4.07;;;;;;;15.19;100.00;101086.06;681989;28;1276;-61
2023/09/07 01:26:43;;;;;;;7.07;4.50;;;;;;;15.19;100.00;101086.06;684504;28;1173;-61
2023/09/07 01:27:07;;;;;;;5.72;4.10;;;;;;;15.15;100.00;101087.00;683267;28;2464;-61
2023/09/07 01:27:29;;;;;;;6.20;4.00;;;;;;;15.14;100.00;101085.25;685864;28;1308;-61
2023/09/07 01:27:50;;;;;;;6.05;4.10;;;;;;;15.13;100.00;101087.03;684803;28;1781;-61
2023/09/07 01:28:11;;;;;;;5.85;3.85;;;;;;;15.14;100.00;101085.25;684664;28;5438;-61
2023/09/07 01:28:31;;;;;;;5.77;4.10;;;;;;;15.16;100.00;101086.13;684905;28;1350;-61
2023/09/07 01:28:52;;;;;;;5.53;4.10;;;;;;;15.22;100.00;101086.00;681637;28;1772;-62
2023/09/07 01:29:12;;;;;;;6.33;4.20;;;;;;;15.19;100.00;101080.78;683286;28;1158;-62
2023/09/07 01:29:33;;;;;;;6.60;4.10;;;;;;;15.20;100.00;101081.66;685633;28;1335;-61
2023/09/07 01:29:54;;;;;;;6.97;4.27;;;;;;;15.18;100.00;101081.69;683319;28;1441;-61
2023/09/07 01:30:17;;;;;;;7.20;4.15;;;;;;;15.14;100.00;101078.22;686248;28;1485;-61
2023/09/07 01:30:39;;;;;;;6.80;4.10;;;;;;;15.13;100.00;101087.03;684624;28;1281;-62
2023/09/07 01:31:01;;;;;;;6.85;4.32;;;;;;;15.11;100.00;101087.97;682454;28;1418;-61
2023/09/07 01:31:21;;;;;;;7.07;4.13;;;;;;;15.13;100.00;101080.88;680579;29;4400;-61
2023/09/07 01:31:42;;;;;;;6.67;4.17;;;;;;;15.18;100.00;101078.19;673816;29;1328;-61
2023/09/07 01:32:03;;;;;;;6.50;4.30;;;;;;;15.21;100.00;101079.00;680066;29;2382;-61
2023/09/07 01:32:26;;;;;;;5.75;4.00;;;;;;;15.20;100.00;101077.25;681452;28;1352;-61
2023/09/07 01:32:46;;;;;;;5.85;4.03;;;;;;;15.19;100.00;101080.78;683244;28;1881;-62
2023/09/07 01:33:08;;;;;;;5.87;4.10;;;;;;;15.17;100.00;101079.94;684919;28;1386;-61
2023/09/07 01:33:29;;;;;;;5.68;4.13;;;;;;;15.16;100.00;101080.84;684640;28;1243;-61
2023/09/07 01:33:49;;;;;;;5.45;3.80;;;;;;;15.18;100.00;101076.41;683804;28;2305;-62
2023/09/07 01:34:10;;;;;;;6.83;4.33;;;;;;;15.22;100.00;101079.88;685505;28;4543;-61
2023/09/07 01:34:30;;;;;;;6.03;4.25;;;;;;;15.27;100.00;101080.66;686474;28;1307;-61
2023/09/07 01:34:52;;;;;;;5.83;4.00;;;;;;;15.24;100.00;101075.44;684079;28;1813;-61
2023/09/07 01:35:16;;;;;;;5.95;4.00;;;;;;;15.22;100.00;101077.25;686745;28;1338;-62
2023/09/07 01:35:39;;;;;;;5.75;3.90;;;;;;;15.19;100.00;101072.00;686751;28;1216;-62
2023/09/07 01:35:59;;;;;;;5.60;3.92;;;;;;;15.13;100.00;101080.88;682941;28;1858;-62
2023/09/07 01:36:20;;;;;;;5.60;4.10;;;;;;;15.10;100.00;101080.94;683637;28;1910;-62
2023/09/07 01:36:41;;;;;;;5.53;4.00;;;;;;;15.11;100.00;101082.69;683799;28;1299;-61
2023/09/07 01:37:01;;;;;;;6.10;4.13;;;;;;;15.10;100.00;101079.16;683043;28;2288;-62
2023/09/07 01:37:21;;;;;;;5.93;4.30;;;;;;;15.08;100.00;101077.47;685903;28;4410;-61
2023/09/07 01:37:42;;;;;;;5.60;3.92;;;;;;;15.08;100.00;101077.47;687275;28;1418;-61
2023/09/07 01:38:03;;;;;;;5.57;3.90;;;;;;;15.07;100.00;101075.75;685023;28;1817;-62
2023/09/07 01:38:23;;;;;;;5.83;4.13;;;;;;;15.04;100.00;101081.91;691181;28;1524;-61
2023/09/07 01:38:44;;;;;;;6.78;4.25;;;;;;;15.03;100.00;101079.31;690254;28;1804;-61
2023/09/07 01:39:08;;;;;;;6.50;4.17;;;;;;;15.02;100.00;101082.84;683700;28;1320;-61
2023/09/07 01:39:29;;;;;;;6.90;4.25;;;;;;;15.02;100.00;101072.31;689308;28;1303;-62
2023/09/07 01:39:50;;;;;;;5.80;4.20;;;;;;;15.04;100.00;101075.78;685576;28;1767;-62
2023/09/07 01:40:10;;;;;;;4.95;3.75;;;;;;;15.03;100.00;101072.28;686265;28;4557;-61
2023/09/07 01:40:30;;;;;;;5.43;4.00;;;;;;;15.02;100.00;101074.94;684686;28;1280;-62
2023/09/07 01:40:51;;;;;;;5.83;4.30;;;;;;;15.01;100.00;101075.81;684162;28;1732;-62
2023/09/07 01:41:11;;;;;;;6.63;4.30;;;;;;;14.99;100.00;101078.47;686547;28;1253;-62